Time;durP1;ratioP1;P1;durP2;ratioP2;P2;SDS_P1;SDS_P2;PMS_P1;PMS_P2;Temp;Humidity;BMP_temperature;BMP_pressure;BME280_temperature;BME280_humidity;BME280_pressure;Samples;Min_cycle;Max_cycle;Signal;HPM_P1;HPM_P2
2020/12/16 06:02:25;;;;;;;;;;;;;;;;;;5065474;28;20381;-59
2020/12/16 06:04:51;;;;;;;;;;;;;;;;;;5072273;28;20334;-59
2020/12/16 06:07:17;;;;;;;;;;;;;;;;;;5070275;28;19954;-59
2020/12/16 06:09:43;;;;;;;;;;;;;;;;;;5071105;28;20027;-58
2020/12/16 06:12:09;;;;;;;;;;;;;;;;;;5068790;28;19908;-59
2020/12/16 06:14:35;;;;;;;;;;;;;;;;;;5065614;28;19905;-59
2020/12/16 06:17:11;;;;;;;15.65;2.95;;;;;;;;;;5069259;28;20365;-60
2020/12/16 06:19:43;;;;;;;19.92;3.22;;;;;;;;;;5069794;28;20047;-60
2020/12/16 06:22:09;;;;;;;16.45;2.72;;;;;;;;;;5067817;28;20020;-59
2020/12/16 06:24:43;;;;;;;22.85;3.08;;;;;;;;;;5070125;28;20025;-59
2020/12/16 06:27:10;;;;;;;17.15;2.63;;;;;;;;;;5067928;28;20032;-60
2020/12/16 06:29:38;;;;;;;21.88;4.10;;;;;;;;;;5064730;28;20030;-60
2020/12/16 06:32:07;;;;;;;23.33;3.60;;;;;;;;;;5068698;28;20420;-60
2020/12/16 06:34:35;;;;;;;14.15;3.22;;;;;;;;;;5069538;28;20078;-59
2020/12/16 06:37:01;;;;;;;24.38;3.70;;;;;;;;;;5067800;28;20064;-59
2020/12/16 06:39:28;;;;;;;22.10;3.88;;;;;;;;;;5067961;28;20117;-58
2020/12/16 06:41:54;;;;;;;22.73;3.38;;;;;;;;;;5067057;28;20017;-59
2020/12/16 06:44:21;;;;;;;28.17;3.83;;;;;;;;;;5065312;28;20037;-59
2020/12/16 06:46:49;;;;;;;27.90;3.80;;;;;;;;;;5071118;28;20025;-59
2020/12/16 06:49:24;;;;;;;22.45;3.78;;;;;;;;;;5067735;28;20401;-59
2020/12/16 06:51:50;;;;;;;;;;;;;;;;;;5067959;28;20070;-61
2020/12/16 06:54:17;;;;;;;23.10;3.38;;;;;;;;;;5058503;28;19999;-59
2020/12/16 06:56:44;;;;;;;23.10;4.70;;;;;;;;;;5051741;28;20029;-59
2020/12/16 06:59:12;;;;;;;17.15;3.72;;;;;;;;;;5053095;28;20040;-59
2020/12/16 07:01:39;;;;;;;19.85;3.13;;;;;;;;;;5061281;28;20055;-58
2020/12/16 07:04:10;;;;;;;24.50;3.92;;;;;;;;;;5049883;28;20040;-59
2020/12/16 07:06:38;;;;;;;26.30;3.92;;;;;;;;;;5052373;28;20039;-60
2020/12/16 07:09:14;;;;;;;27.45;4.10;;;;;;;;;;5051249;28;20031;-59
2020/12/16 07:11:40;;;;;;;21.80;3.22;;;;;;;;;;5050048;28;20052;-59
2020/12/16 07:14:14;;;;;;;20.08;3.60;;;;;;;;;;5047749;28;20029;-59
2020/12/16 07:16:40;;;;;;;17.70;4.35;;;;;;;;;;5040616;28;20110;-59
2020/12/16 07:19:06;;;;;;;18.67;3.10;;;;;;;;;;5049285;28;20506;-59
2020/12/16 07:21:33;;;;;;;18.60;3.30;;;;;;;;;;5047587;28;20021;-58
2020/12/16 07:24:13;;;;;;;23.60;3.83;;;;;;;;;;5050613;28;20064;-59
2020/12/16 07:26:43;;;;;;;23.88;4.47;;;;;;;;;;5049421;28;20036;-59
2020/12/16 07:29:30;;;;;;;22.50;3.35;;;;;;;;;;5048849;28;20036;-59
2020/12/16 07:32:05;;;;;;;24.67;4.50;;;;;;;;;;5039715;28;20059;-59
2020/12/16 07:34:32;;;;;;;26.75;4.32;;;;;;;;;;5041653;28;20486;-58
2020/12/16 07:37:00;;;;;;;27.17;3.58;;;;;;;;;;5039677;28;20048;-59
2020/12/16 07:39:26;;;;;;;20.73;3.95;;;;;;;;;;5048815;28;20040;-59
2020/12/16 07:41:54;;;;;;;18.17;3.83;;;;;;;;;;5049014;28;20033;-58
2020/12/16 07:44:20;;;;;;;21.55;3.70;;;;;;;;;;5050562;28;20040;-59
2020/12/16 07:46:46;;;;;;;23.90;3.53;;;;;;;;;;5049068;28;20371;-59
2020/12/16 07:49:16;;;;;;;26.10;4.72;;;;;;;;;;5048941;28;20045;-59
2020/12/16 07:51:42;;;;;;;25.02;5.18;;;;;;;;;;5050957;28;20508;-58
2020/12/16 07:54:08;;;;;;;21.70;4.00;;;;;;;;;;5050560;28;20044;-59
2020/12/16 07:56:34;;;;;;;20.20;3.60;;;;;;;;;;5048845;28;20057;-59
2020/12/16 07:59:13;;;;;;;21.05;3.72;;;;;;;;;;5048948;28;20029;-59
2020/12/16 08:01:40;;;;;;;25.65;3.58;;;;;;;;;;5047972;28;20049;-59
2020/12/16 08:04:06;;;;;;;21.40;3.65;;;;;;;;;;5048745;28;20244;-59
2020/12/16 08:06:32;;;;;;;22.60;3.33;;;;;;;;;;5051268;28;20025;-58
2020/12/16 08:08:59;;;;;;;21.42;4.18;;;;;;;;;;5044579;28;20029;-59
2020/12/16 08:11:27;;;;;;;22.55;3.95;;;;;;;;;;5044650;28;20083;-59
2020/12/16 08:14:02;;;;;;;25.33;3.70;;;;;;;;;;5047008;28;20021;-59
2020/12/16 08:16:28;;;;;;;24.65;3.88;;;;;;;;;;5048327;28;20072;-59
2020/12/16 08:18:54;;;;;;;22.65;3.33;;;;;;;;;;5048826;28;20542;-60
2020/12/16 08:21:22;;;;;;;19.65;3.15;;;;;;;;;;5051642;28;20032;-59
2020/12/16 08:23:49;;;;;;;19.70;3.22;;;;;;;;;;5047822;28;20028;-59
2020/12/16 08:26:15;;;;;;;19.58;3.95;;;;;;;;;;5048103;28;20060;-58
2020/12/16 08:28:42;;;;;;;25.48;4.03;;;;;;;;;;5048479;28;20029;-59
2020/12/16 08:31:08;;;;;;;26.67;3.65;;;;;;;;;;5047582;28;20052;-60
2020/12/16 08:33:34;;;;;;;14.25;2.58;;;;;;;;;;5045802;28;20037;-59
2020/12/16 08:36:02;;;;;;;24.20;3.80;;;;;;;;;;5042711;28;20111;-59
2020/12/16 08:38:28;;;;;;;20.67;3.22;;;;;;;;;;5040483;28;20100;-60
2020/12/16 08:40:57;;;;;;;20.60;4.40;;;;;;;;;;5036832;28;20033;-59
2020/12/16 08:43:29;;;;;;;30.50;3.70;;;;;;;;;;5034380;28;20021;-59
2020/12/16 08:46:16;;;;;;;25.02;3.53;;;;;;;;;;5040832;28;20029;-59
2020/12/16 08:48:49;;;;;;;18.33;3.03;;;;;;;;;;5035284;28;20065;-59
2020/12/16 08:51:22;;;;;;;17.13;2.95;;;;;;;;;;5031079;28;20061;-59
2020/12/16 08:53:55;;;;;;;14.35;3.45;;;;;;;;;;5034119;28;20029;-59
2020/12/16 08:56:29;;;;;;;26.58;3.97;;;;;;;;;;5033945;28;20053;-59
2020/12/16 08:59:00;;;;;;;27.38;3.88;;;;;;;;;;5033037;28;20144;-59
2020/12/16 09:01:27;;;;;;;26.48;3.97;;;;;;;;;;5031113;28;20053;-59
2020/12/16 09:03:54;;;;;;;16.90;3.20;;;;;;;;;;5031612;28;20144;-59
2020/12/16 09:06:20;;;;;;;31.15;3.97;;;;;;;;;;5032150;28;20413;-59
2020/12/16 09:08:47;;;;;;;20.00;3.45;;;;;;;;;;5036222;28;20033;-64
2020/12/16 09:11:13;;;;;;;20.63;3.70;;;;;;;;;;5033755;28;20034;-65
2020/12/16 09:13:39;;;;;;;19.58;4.07;;;;;;;;;;5034150;28;20025;-65
2020/12/16 09:16:05;;;;;;;26.55;3.78;;;;;;;;;;5032312;28;20395;-65
2020/12/16 09:18:34;;;;;;;22.98;4.03;;;;;;;;;;5032963;28;20496;-64
2020/12/16 09:21:01;;;;;;;20.48;3.50;;;;;;;;;;5035102;28;20021;-64
2020/12/16 09:23:30;;;;;;;24.65;3.70;;;;;;;;;;5033832;28;20076;-64
2020/12/16 09:25:56;;;;;;;21.60;4.00;;;;;;;;;;5033103;28;20075;-64
2020/12/16 09:28:36;;;;;;;18.58;3.63;;;;;;;;;;5032435;28;20021;-64
2020/12/16 09:31:18;;;;;;;17.92;3.40;;;;;;;;;;5031023;28;20529;-64
2020/12/16 09:33:57;;;;;;;24.50;3.55;;;;;;;;;;5035488;28;20030;-58
2020/12/16 09:36:27;;;;;;;25.38;4.20;;;;;;;;;;5039057;28;20029;-58
2020/12/16 09:38:56;;;;;;;23.13;3.25;;;;;;;;;;5036459;28;20040;-58
2020/12/16 09:41:22;;;;;;;24.73;4.22;;;;;;;;;;5033859;28;20411;-58
2020/12/16 09:43:48;;;;;;;24.17;3.45;;;;;;;;;;5035631;28;20417;-58
2020/12/16 09:46:22;;;;;;;22.95;3.92;;;;;;;;;;5031692;28;20029;-58
2020/12/16 09:48:48;;;;;;;27.38;4.32;;;;;;;;;;5032757;28;20096;-58
2020/12/16 09:51:15;;;;;;;20.35;4.05;;;;;;;;;;5042270;28;20040;-59
2020/12/16 09:53:42;;;;;;;24.02;4.78;;;;;;;;;;5048008;28;20025;-58
2020/12/16 09:56:08;;;;;;;23.35;4.40;;;;;;;;;;5047219;28;20029;-58
2020/12/16 09:58:38;;;;;;;26.75;4.57;;;;;;;;;;5046926;28;20025;-58
2020/12/16 10:01:04;;;;;;;27.17;4.25;;;;;;;;;;5045670;28;20076;-58
2020/12/16 10:03:31;;;;;;;29.38;4.78;;;;;;;;;;5049286;28;20021;-58
2020/12/16 10:05:57;;;;;;;21.80;4.28;;;;;;;;;;5049077;28;20033;-57
2020/12/16 10:08:23;;;;;;;24.83;3.92;;;;;;;;;;5048030;28;20036;-58
2020/12/16 10:10:49;;;;;;;25.30;4.50;;;;;;;;;;5043783;28;20036;-58
2020/12/16 10:13:15;;;;;;;26.45;5.03;;;;;;;;;;5047377;28;20094;-58
2020/12/16 10:15:42;;;;;;;25.83;4.07;;;;;;;;;;5048885;28;20473;-58
2020/12/16 10:18:08;;;;;;;24.88;5.22;;;;;;;;;;5049208;28;20035;-58
2020/12/16 10:20:34;;;;;;;24.33;5.18;;;;;;;;;;5047788;28;20028;-58
2020/12/16 10:23:02;;;;;;;26.30;4.53;;;;;;;;;;5047855;28;20411;-58
2020/12/16 10:25:28;;;;;;;41.83;4.60;;;;;;;;;;5049007;28;20501;-58
2020/12/16 10:27:54;;;;;;;21.63;4.22;;;;;;;;;;5049663;28;20649;-58
2020/12/16 10:30:24;;;;;;;30.08;5.07;;;;;;;;;;5049885;28;20036;-58
2020/12/16 10:32:51;;;;;;;30.60;5.13;;;;;;;;;;5048190;28;20094;-58
2020/12/16 10:35:17;;;;;;;32.90;5.07;;;;;;;;;;5048150;28;20025;-58
2020/12/16 10:37:45;;;;;;;30.20;5.05;;;;;;;;;;5050299;28;20048;-58
2020/12/16 10:40:12;;;;;;;34.85;5.50;;;;;;;;;;5051962;28;20132;-58
2020/12/16 10:42:38;;;;;;;30.20;4.72;;;;;;;;;;5051919;28;20009;-58
2020/12/16 10:45:05;;;;;;;23.55;4.55;;;;;;;;;;5056585;28;20116;-59
2020/12/16 10:47:31;;;;;;;27.60;4.40;;;;;;;;;;5051779;28;20769;-58
2020/12/16 10:49:57;;;;;;;22.20;4.35;;;;;;;;;;5052603;28;20492;-58
2020/12/16 10:52:23;;;;;;;24.58;4.80;;;;;;;;;;5052191;28;20036;-58
2020/12/16 10:54:49;;;;;;;22.88;4.20;;;;;;;;;;5048750;28;20036;-58
2020/12/16 10:57:15;;;;;;;26.00;3.30;;;;;;;;;;5052549;28;20029;-58
2020/12/16 10:59:42;;;;;;;27.95;3.65;;;;;;;;;;5051195;28;20024;-58
2020/12/16 11:02:08;;;;;;;18.02;3.25;;;;;;;;;;5051263;28;20044;-58
2020/12/16 11:04:35;;;;;;;18.83;2.88;;;;;;;;;;5051782;28;20120;-58
2020/12/16 11:07:01;;;;;;;13.27;1.40;;;;;;;;;;5051544;28;20017;-57
2020/12/16 11:09:27;;;;;;;6.10;1.20;;;;;;;;;;5050589;28;20551;-49
2020/12/16 11:11:54;;;;;;;10.48;1.30;;;;;;;;;;5050793;28;20528;-50
2020/12/16 11:14:21;;;;;;;7.40;1.13;;;;;;;;;;5051477;28;20040;-58
2020/12/16 11:16:47;;;;;;;13.70;1.73;;;;;;;;;;5052640;28;20033;-61
2020/12/16 11:19:14;;;;;;;11.57;1.80;;;;;;;;;;5051322;28;20058;-58
2020/12/16 11:21:42;;;;;;;3.65;1.00;;;;;;;;;;5051302;28;20041;-57
2020/12/16 11:24:08;;;;;;;14.27;1.80;;;;;;;;;;5052143;28;20025;-57
2020/12/16 11:26:42;;;;;;;9.52;1.58;;;;;;;;;;5050967;28;20108;-58
2020/12/16 11:29:09;;;;;;;10.38;1.30;;;;;;;;;;5047736;28;20108;-58
2020/12/16 11:31:42;;;;;;;15.95;1.83;;;;;;;;;;5052097;28;20086;-57
2020/12/16 11:34:08;;;;;;;25.33;2.35;;;;;;;;;;5048493;28;20043;-58
2020/12/16 11:36:42;;;;;;;11.77;1.70;;;;;;;;;;5052099;28;20028;-58
2020/12/16 11:39:08;;;;;;;14.15;2.22;;;;;;;;;;5048650;28;20021;-58
2020/12/16 11:41:34;;;;;;;26.77;2.65;;;;;;;;;;5050572;28;20497;-57
2020/12/16 11:44:01;;;;;;;25.13;2.60;;;;;;;;;;5052555;28;20470;-58
2020/12/16 11:46:28;;;;;;;19.50;2.47;;;;;;;;;;5048285;28;20485;-56
2020/12/16 11:48:55;;;;;;;23.10;3.05;;;;;;;;;;5050505;28;20104;-58
2020/12/16 11:51:21;;;;;;;25.27;3.70;;;;;;;;;;5051013;28;20060;-58
2020/12/16 11:53:47;;;;;;;16.83;2.88;;;;;;;;;;5050450;28;20104;-57
2020/12/16 11:56:13;;;;;;;22.98;2.80;;;;;;;;;;5048889;28;20535;-58
2020/12/16 11:58:40;;;;;;;15.63;2.63;;;;;;;;;;5047787;28;20088;-58
2020/12/16 12:01:06;;;;;;;19.35;2.85;;;;;;;;;;5048840;28;20057;-58
2020/12/16 12:03:32;;;;;;;23.65;2.83;;;;;;;;;;5051688;28;20469;-58
2020/12/16 12:05:58;;;;;;;14.13;2.65;;;;;;;;;;5048799;28;20033;-58
2020/12/16 12:08:25;;;;;;;20.58;3.03;;;;;;;;;;5050145;28;20028;-58
2020/12/16 12:10:51;;;;;;;28.08;3.33;;;;;;;;;;5048948;28;20029;-58
2020/12/16 12:13:18;;;;;;;21.50;3.00;;;;;;;;;;5050285;28;20127;-58
2020/12/16 12:15:44;;;;;;;26.60;3.45;;;;;;;;;;5050159;28;20056;-58
2020/12/16 12:18:10;;;;;;;37.63;3.95;;;;;;;;;;5051055;28;20029;-58
2020/12/16 12:20:36;;;;;;;19.75;2.60;;;;;;;;;;5049948;28;20071;-58
2020/12/16 12:23:02;;;;;;;22.98;3.60;;;;;;;;;;5049096;28;20474;-58
2020/12/16 12:25:28;;;;;;;18.52;3.50;;;;;;;;;;5049855;28;20441;-58
2020/12/16 12:27:54;;;;;;;26.90;3.42;;;;;;;;;;5043712;28;20421;-63
2020/12/16 12:30:20;;;;;;;31.45;3.58;;;;;;;;;;5049622;28;20025;-62
2020/12/16 12:32:47;;;;;;;23.85;3.70;;;;;;;;;;5048866;28;20091;-63
2020/12/16 12:35:13;;;;;;;26.70;3.72;;;;;;;;;;5047930;28;20039;-63
2020/12/16 12:37:39;;;;;;;18.02;3.00;;;;;;;;;;5048331;28;20032;-63
2020/12/16 12:40:05;;;;;;;26.77;4.35;;;;;;;;;;5047585;28;20847;-63
2020/12/16 12:42:31;;;;;;;30.27;4.47;;;;;;;;;;5051226;28;20489;-62
2020/12/16 12:44:57;;;;;;;25.05;3.28;;;;;;;;;;5049867;28;20104;-64
2020/12/16 12:47:23;;;;;;;21.00;2.90;;;;;;;;;;5049204;28;20490;-63
2020/12/16 12:49:49;;;;;;;28.52;3.80;;;;;;;;;;5047979;28;20033;-63
2020/12/16 12:52:16;;;;;;;25.05;4.35;;;;;;;;;;5047730;28;20022;-63
2020/12/16 12:54:42;;;;;;;26.95;3.20;;;;;;;;;;5050311;28;20036;-63
2020/12/16 12:57:08;;;;;;;26.30;4.85;;;;;;;;;;5048990;28;20029;-64
2020/12/16 12:59:34;;;;;;;20.42;3.80;;;;;;;;;;5046851;28;20048;-63
2020/12/16 13:02:01;;;;;;;25.60;3.13;;;;;;;;;;5048285;28;20033;-63
2020/12/16 13:04:27;;;;;;;24.95;3.65;;;;;;;;;;5049036;28;20021;-63
2020/12/16 13:06:53;;;;;;;29.30;3.92;;;;;;;;;;5048175;28;20951;-63
2020/12/16 13:09:19;;;;;;;26.45;4.13;;;;;;;;;;5050713;28;20029;-64
2020/12/16 13:11:48;;;;;;;21.65;3.08;;;;;;;;;;5045901;28;20094;-63
2020/12/16 13:14:14;;;;;;;23.08;3.53;;;;;;;;;;5048600;28;20104;-63
2020/12/16 13:16:43;;;;;;;19.70;4.93;;;;;;;;;;5047684;28;20036;-63
2020/12/16 13:19:15;;;;;;;24.25;4.25;;;;;;;;;;5052996;28;20501;-64
2020/12/16 13:21:42;;;;;;;19.60;3.42;;;;;;;;;;5048699;28;20083;-63
2020/12/16 13:24:08;;;;;;;19.33;3.83;;;;;;;;;;5049667;28;20021;-64
2020/12/16 13:26:34;;;;;;;23.40;4.28;;;;;;;;;;5048654;28;20029;-64
2020/12/16 13:29:00;;;;;;;20.20;4.85;;;;;;;;;;5048566;28;20021;-64
2020/12/16 13:31:26;;;;;;;18.85;5.20;;;;;;;;;;5049204;28;20025;-64
2020/12/16 13:33:52;;;;;;;24.02;5.22;;;;;;;;;;5047750;28;20045;-60
2020/12/16 13:36:20;;;;;;;20.35;4.03;;;;;;;;;;5049507;28;20476;-59
2020/12/16 13:38:46;;;;;;;24.67;4.40;;;;;;;;;;5048118;28;20488;-60
2020/12/16 13:41:12;;;;;;;23.85;5.55;;;;;;;;;;5052873;28;20023;-60
2020/12/16 13:43:38;;;;;;;21.15;6.05;;;;;;;;;;5048531;28;20029;-60
2020/12/16 13:46:04;;;;;;;19.73;4.60;;;;;;;;;;5046455;28;20086;-60
2020/12/16 13:48:30;;;;;;;20.17;4.70;;;;;;;;;;5046521;28;20040;-60
2020/12/16 13:50:56;;;;;;;22.83;5.47;;;;;;;;;;5047318;28;20075;-59
2020/12/16 13:53:22;;;;;;;17.98;5.28;;;;;;;;;;5042237;28;20029;-59
2020/12/16 13:55:49;;;;;;;22.15;4.00;;;;;;;;;;5046813;28;20049;-60
2020/12/16 13:58:15;;;;;;;18.35;3.63;;;;;;;;;;5044184;28;20525;-60
2020/12/16 14:00:41;;;;;;;14.77;3.50;;;;;;;;;;5048788;28;20053;-60
2020/12/16 14:03:08;;;;;;;13.85;3.08;;;;;;;;;;5043663;28;20025;-60
2020/12/16 14:05:34;;;;;;;19.17;2.92;;;;;;;;;;5042165;28;20025;-60
2020/12/16 14:08:02;;;;;;;16.05;3.80;;;;;;;;;;5042817;28;20261;-61
2020/12/16 14:10:28;;;;;;;13.93;3.65;;;;;;;;;;5042753;28;20033;-59
2020/12/16 14:12:54;;;;;;;16.35;4.55;;;;;;;;;;5046284;28;20021;-60
2020/12/16 14:15:20;;;;;;;22.10;4.45;;;;;;;;;;5053348;28;20033;-60
2020/12/16 14:17:46;;;;;;;19.40;3.40;;;;;;;;;;5050522;28;20398;-60
2020/12/16 14:20:12;;;;;;;19.15;4.43;;;;;;;;;;5051786;28;20108;-60
2020/12/16 14:22:38;;;;;;;15.52;3.97;;;;;;;;;;5052037;28;20151;-59
2020/12/16 14:25:05;;;;;;;19.70;4.25;;;;;;;;;;5050674;28;20024;-60
2020/12/16 14:27:31;;;;;;;18.27;5.13;;;;;;;;;;5048491;28;20036;-60
2020/12/16 14:29:57;;;;;;;27.38;7.97;;;;;;;;;;5051725;28;20017;-59
2020/12/16 14:32:26;;;;;;;19.92;8.48;;;;;;;;;;5049577;28;20035;-60
2020/12/16 14:34:52;;;;;;;27.33;6.80;;;;;;;;;;5049602;28;20468;-60
2020/12/16 14:37:18;;;;;;;21.02;6.97;;;;;;;;;;5051464;28;20610;-59
2020/12/16 14:39:45;;;;;;;26.20;6.45;;;;;;;;;;5051730;28;20056;-60
2020/12/16 14:42:11;;;;;;;27.88;6.95;;;;;;;;;;5053145;28;20047;-59
2020/12/16 14:44:37;;;;;;;21.77;5.93;;;;;;;;;;5051514;28;20063;-60
2020/12/16 14:47:05;;;;;;;24.88;5.65;;;;;;;;;;5051490;28;20020;-59
2020/12/16 14:49:31;;;;;;;21.60;4.35;;;;;;;;;;5049140;28;20032;-60
2020/12/16 14:51:59;;;;;;;21.85;4.13;;;;;;;;;;5051736;28;20109;-60
2020/12/16 14:54:25;;;;;;;20.48;4.20;;;;;;;;;;5053185;28;20031;-59
2020/12/16 14:56:51;;;;;;;32.20;4.57;;;;;;;;;;5051432;28;20100;-60
2020/12/16 14:59:18;;;;;;;22.88;4.03;;;;;;;;;;5050592;28;20526;-59
2020/12/16 15:01:44;;;;;;;20.20;3.88;;;;;;;;;;5050917;28;20057;-60
2020/12/16 15:04:10;;;;;;;19.90;4.75;;;;;;;;;;5051421;28;20036;-60
2020/12/16 15:06:37;;;;;;;20.35;4.13;;;;;;;;;;5051719;28;20029;-59
2020/12/16 15:09:03;;;;;;;26.73;5.25;;;;;;;;;;5052801;28;20033;-60
2020/12/16 15:11:33;;;;;;;17.50;4.93;;;;;;;;;;5051223;28;20043;-60
2020/12/16 15:13:59;;;;;;;18.10;4.82;;;;;;;;;;5050981;28;20081;-60
2020/12/16 15:16:28;;;;;;;26.83;4.80;;;;;;;;;;5049612;28;20525;-59
2020/12/16 15:18:55;;;;;;;21.13;5.22;;;;;;;;;;5051165;28;20025;-59
2020/12/16 15:21:21;;;;;;;21.58;4.35;;;;;;;;;;5054217;28;20053;-60
2020/12/16 15:23:48;;;;;;;26.77;4.88;;;;;;;;;;5046453;28;20021;-63
2020/12/16 15:26:14;;;;;;;16.27;4.53;;;;;;;;;;5049385;28;20025;-62
2020/12/16 15:28:40;;;;;;;29.35;5.30;;;;;;;;;;5048786;28;20398;-62
2020/12/16 15:31:06;;;;;;;30.15;8.32;;;;;;;;;;5048717;28;20041;-63
2020/12/16 15:33:32;;;;;;;25.65;5.78;;;;;;;;;;5051631;28;20044;-62
2020/12/16 15:35:59;;;;;;;21.75;5.13;;;;;;;;;;5050836;28;20517;-62
2020/12/16 15:38:25;;;;;;;27.90;4.68;;;;;;;;;;5050001;28;20481;-62
2020/12/16 15:40:51;;;;;;;26.33;6.00;;;;;;;;;;5051248;28;20052;-62
2020/12/16 15:43:18;;;;;;;34.22;6.47;;;;;;;;;;5050484;28;20406;-62
2020/12/16 15:45:44;;;;;;;31.15;6.38;;;;;;;;;;5052232;28;20434;-63
2020/12/16 15:48:10;;;;;;;34.92;7.75;;;;;;;;;;5059312;28;20557;-62
2020/12/16 15:50:36;;;;;;;26.35;6.85;;;;;;;;;;5051540;28;20037;-62
2020/12/16 15:53:02;;;;;;;27.92;7.88;;;;;;;;;;5053117;28;20032;-63
2020/12/16 15:55:28;;;;;;;25.67;10.30;;;;;;;;;;5061041;28;20021;-63
2020/12/16 15:57:54;;;;;;;25.83;10.68;;;;;;;;;;5054830;28;24092;-62
2020/12/16 16:00:22;;;;;;;31.58;12.48;;;;;;;;;;5049444;28;20061;-63
2020/12/16 16:02:52;;;;;;;30.48;13.45;;;;;;;;;;5037805;28;20068;-62
2020/12/16 16:05:19;;;;;;;26.73;11.13;;;;;;;;;;5032185;28;20498;-62
2020/12/16 16:07:45;;;;;;;29.20;10.85;;;;;;;;;;5030784;28;20087;-62
2020/12/16 16:10:15;;;;;;;26.60;10.90;;;;;;;;;;5030783;28;20031;-62
2020/12/16 16:12:41;;;;;;;34.95;12.07;;;;;;;;;;5032295;28;20026;-62
2020/12/16 16:15:08;;;;;;;35.80;8.73;;;;;;;;;;5033916;28;20014;-61
2020/12/16 16:17:34;;;;;;;24.15;8.05;;;;;;;;;;5029589;28;20039;-63
2020/12/16 16:20:01;;;;;;;27.85;9.45;;;;;;;;;;5034613;28;20025;-64
2020/12/16 16:22:27;;;;;;;31.85;10.57;;;;;;;;;;5037811;28;20044;-63
2020/12/16 16:24:53;;;;;;;28.77;9.30;;;;;;;;;;5038531;28;20068;-63
2020/12/16 16:27:20;;;;;;;29.08;9.32;;;;;;;;;;5043648;28;20033;-63
2020/12/16 16:29:46;;;;;;;31.25;9.20;;;;;;;;;;5042442;28;20047;-63
2020/12/16 16:32:16;;;;;;;26.08;5.95;;;;;;;;;;5044064;28;20490;-63
2020/12/16 16:34:42;;;;;;;23.98;6.13;;;;;;;;;;5040593;28;20024;-63
2020/12/16 16:37:09;;;;;;;20.25;8.05;;;;;;;;;;5043963;28;20515;-63
2020/12/16 16:39:35;;;;;;;23.55;5.57;;;;;;;;;;5034321;28;21062;-63
2020/12/16 16:42:01;;;;;;;30.98;7.03;;;;;;;;;;5036864;28;20030;-59
2020/12/16 16:44:27;;;;;;;20.35;5.30;;;;;;;;;;5031702;28;20018;-59
2020/12/16 16:46:53;;;;;;;29.00;5.35;;;;;;;;;;5034542;28;20120;-59
2020/12/16 16:49:19;;;;;;;25.17;5.50;;;;;;;;;;5029718;28;20021;-61
2020/12/16 16:51:55;;;;;;;25.13;5.28;;;;;;;;;;5032153;28;20128;-59
2020/12/16 16:54:21;;;;;;;21.70;4.78;;;;;;;;;;5032270;28;20029;-57
2020/12/16 16:56:47;;;;;;;22.75;5.20;;;;;;;;;;5031698;28;20100;-59
2020/12/16 16:59:14;;;;;;;30.13;5.72;;;;;;;;;;5031389;28;20052;-60
2020/12/16 17:01:42;;;;;;;23.15;4.90;;;;;;;;;;5034472;28;20076;-62
2020/12/16 17:04:12;;;;;;;36.03;8.93;;;;;;;;;;5038950;28;20041;-60
2020/12/16 17:06:39;;;;;;;27.90;7.03;;;;;;;;;;5044367;28;20021;-60
2020/12/16 17:09:06;;;;;;;26.50;5.95;;;;;;;;;;5048106;28;20061;-59
2020/12/16 17:11:43;;;;;;;29.02;7.15;;;;;;;;;;5045743;28;20041;-59
2020/12/16 17:14:09;;;;;;;30.40;7.65;;;;;;;;;;5042181;28;20029;-59
2020/12/16 17:16:36;;;;;;;24.50;6.15;;;;;;;;;;5038659;28;20060;-59
2020/12/16 17:19:03;;;;;;;28.85;6.22;;;;;;;;;;5047475;28;20021;-59
2020/12/16 17:21:29;;;;;;;24.00;6.43;;;;;;;;;;5045897;28;20462;-60
2020/12/16 17:23:56;;;;;;;29.23;8.00;;;;;;;;;;5033067;28;20112;-60
2020/12/16 17:26:23;;;;;;;30.17;8.95;;;;;;;;;;5033124;28;20086;-59
2020/12/16 17:28:49;;;;;;;33.97;8.80;;;;;;;;;;5033586;28;20037;-60
2020/12/16 17:31:16;;;;;;;24.17;8.77;;;;;;;;;;5030771;28;20087;-59
2020/12/16 17:33:42;;;;;;;30.65;10.18;;;;;;;;;;5033777;28;20021;-59
2020/12/16 17:36:08;;;;;;;34.63;12.05;;;;;;;;;;5046972;28;20036;-59
2020/12/16 17:38:34;;;;;;;32.67;11.13;;;;;;;;;;5045382;28;20024;-60
2020/12/16 17:41:01;;;;;;;29.48;10.88;;;;;;;;;;5044732;28;20028;-59
2020/12/16 17:43:27;;;;;;;31.20;9.98;;;;;;;;;;5044711;28;20565;-59
2020/12/16 17:45:54;;;;;;;34.88;10.07;;;;;;;;;;5046222;28;20519;-60
2020/12/16 17:48:20;;;;;;;22.55;8.95;;;;;;;;;;5046829;28;20017;-60
2020/12/16 17:50:46;;;;;;;32.05;11.10;;;;;;;;;;5044925;28;20130;-59
2020/12/16 17:53:12;;;;;;;40.75;14.23;;;;;;;;;;5045072;28;20021;-59
2020/12/16 17:55:38;;;;;;;39.10;17.65;;;;;;;;;;5039001;28;20028;-59
2020/12/16 17:58:06;;;;;;;31.65;9.55;;;;;;;;;;5057289;28;20021;-60
2020/12/16 18:00:32;;;;;;;28.70;9.13;;;;;;;;;;5048094;28;20049;-59
2020/12/16 18:02:58;;;;;;;26.30;8.25;;;;;;;;;;5045165;28;20064;-59
2020/12/16 18:05:25;;;;;;;20.33;5.72;;;;;;;;;;5046106;28;20115;-59
2020/12/16 18:07:53;;;;;;;25.17;6.35;;;;;;;;;;5045781;28;20367;-59
2020/12/16 18:10:19;;;;;;;28.15;6.60;;;;;;;;;;5045975;28;20069;-59
2020/12/16 18:12:45;;;;;;;25.38;8.18;;;;;;;;;;5048700;28;20048;-59
2020/12/16 18:15:11;;;;;;;20.88;6.50;;;;;;;;;;5047925;28;20498;-59
2020/12/16 18:17:41;;;;;;;18.40;6.13;;;;;;;;;;5047274;28;20033;-59
2020/12/16 18:20:07;;;;;;;30.00;6.90;;;;;;;;;;5046718;28;20572;-60
2020/12/16 18:22:33;;;;;;;24.38;7.13;;;;;;;;;;5042614;28;20536;-59
2020/12/16 18:25:00;;;;;;;30.20;6.90;;;;;;;;;;5047675;28;20470;-60
2020/12/16 18:27:27;;;;;;;27.73;7.47;;;;;;;;;;5049751;28;20036;-60
2020/12/16 18:29:53;;;;;;;27.95;6.97;;;;;;;;;;5046580;28;20053;-59
2020/12/16 18:32:21;;;;;;;29.13;7.55;;;;;;;;;;5047013;28;20045;-59
2020/12/16 18:34:51;;;;;;;32.33;7.22;;;;;;;;;;5048017;28;20017;-59
2020/12/16 18:37:18;;;;;;;21.58;7.40;;;;;;;;;;5044818;28;20440;-59
2020/12/16 18:39:51;;;;;;;22.10;7.25;;;;;;;;;;5049704;28;20120;-59
2020/12/16 18:42:18;;;;;;;27.63;6.80;;;;;;;;;;5046145;28;20032;-60
2020/12/16 18:44:47;;;;;;;30.17;5.63;;;;;;;;;;5047485;28;20021;-59
2020/12/16 18:47:13;;;;;;;17.55;3.70;;;;;;;;;;5048363;28;20021;-59
2020/12/16 18:49:39;;;;;;;29.50;3.60;;;;;;;;;;5046875;28;20025;-60
2020/12/16 18:52:05;;;;;;;24.10;2.97;;;;;;;;;;5046125;28;20424;-60
2020/12/16 18:54:32;;;;;;;17.92;3.20;;;;;;;;;;5043368;28;20021;-60
2020/12/16 18:56:58;;;;;;;24.48;3.55;;;;;;;;;;5049235;28;20083;-60
2020/12/16 18:59:25;;;;;;;12.75;2.28;;;;;;;;;;5048872;28;20025;-60
2020/12/16 19:01:51;;;;;;;16.92;2.33;;;;;;;;;;5050132;28;20037;-60
2020/12/16 19:04:19;;;;;;;22.48;2.67;;;;;;;;;;5049445;28;20061;-60
2020/12/16 19:06:45;;;;;;;15.07;2.70;;;;;;;;;;5051056;28;20489;-60
2020/12/16 19:09:11;;;;;;;20.05;2.83;;;;;;;;;;5052259;28;20025;-60
2020/12/16 19:11:41;;;;;;;18.13;2.72;;;;;;;;;;5046201;28;20040;-59
2020/12/16 19:14:07;;;;;;;18.13;1.90;;;;;;;;;;5054574;28;20104;-60
2020/12/16 19:16:34;;;;;;;15.65;2.13;;;;;;;;;;5054360;28;20032;-59
2020/12/16 19:19:01;;;;;;;18.30;2.85;;;;;;;;;;5053239;28;20036;-60
2020/12/16 19:21:27;;;;;;;18.45;2.67;;;;;;;;;;5049025;28;20064;-60
2020/12/16 19:23:53;;;;;;;17.23;3.45;;;;;;;;;;5052260;28;20056;-60
2020/12/16 19:26:26;;;;;;;14.95;2.25;;;;;;;;;;5052109;28;20029;-60
2020/12/16 19:28:52;;;;;;;20.80;2.58;;;;;;;;;;5050857;28;20037;-60
2020/12/16 19:31:18;;;;;;;14.68;2.05;;;;;;;;;;5050089;28;20151;-60
2020/12/16 19:33:44;;;;;;;14.10;1.98;;;;;;;;;;5050956;28;20025;-59
2020/12/16 19:36:10;;;;;;;14.43;2.63;;;;;;;;;;5051871;28;20100;-59
2020/12/16 19:38:37;;;;;;;17.90;2.28;;;;;;;;;;5050585;28;20430;-60
2020/12/16 19:41:03;;;;;;;20.63;2.97;;;;;;;;;;5048927;28;20060;-60
2020/12/16 19:43:29;;;;;;;15.98;2.22;;;;;;;;;;5047382;28;20112;-59
2020/12/16 19:45:57;;;;;;;14.50;2.92;;;;;;;;;;5050141;28;20025;-60
2020/12/16 19:48:26;;;;;;;14.75;2.20;;;;;;;;;;5052155;28;20052;-60
2020/12/16 19:50:52;;;;;;;11.20;2.20;;;;;;;;;;5050818;28;20516;-60
2020/12/16 19:53:19;;;;;;;15.10;2.15;;;;;;;;;;5050999;28;20033;-60
2020/12/16 19:55:45;;;;;;;17.98;2.53;;;;;;;;;;5043152;28;20021;-60
2020/12/16 19:58:11;;;;;;;16.58;3.30;;;;;;;;;;5050932;28;20102;-59
2020/12/16 20:00:37;;;;;;;17.77;3.15;;;;;;;;;;5051239;28;20052;-60
2020/12/16 20:03:04;;;;;;;20.33;3.03;;;;;;;;;;5048333;28;20025;-60
2020/12/16 20:05:30;;;;;;;11.63;2.22;;;;;;;;;;5050467;28;20033;-60
2020/12/16 20:07:56;;;;;;;13.90;2.67;;;;;;;;;;5050638;28;20033;-60
2020/12/16 20:10:22;;;;;;;21.58;2.42;;;;;;;;;;5050802;28;20143;-60
2020/12/16 20:12:51;;;;;;;16.02;2.35;;;;;;;;;;5049483;28;20497;-60
2020/12/16 20:15:18;;;;;;;16.65;2.92;;;;;;;;;;5050123;28;20021;-59
2020/12/16 20:17:44;;;;;;;15.32;2.58;;;;;;;;;;5048008;28;20025;-60
2020/12/16 20:20:11;;;;;;;21.98;3.47;;;;;;;;;;5050708;28;20025;-60
2020/12/16 20:22:37;;;;;;;21.05;3.55;;;;;;;;;;5049697;28;20048;-59
2020/12/16 20:25:04;;;;;;;16.73;3.45;;;;;;;;;;5051612;28;20037;-60
2020/12/16 20:27:30;;;;;;;31.50;4.00;;;;;;;;;;5051374;28;20041;-59
2020/12/16 20:29:56;;;;;;;33.17;4.07;;;;;;;;;;5049668;28;20025;-60
2020/12/16 20:32:23;;;;;;;16.83;2.88;;;;;;;;;;5048361;28;20051;-59